Cristian Gimenez

Chefscout - Penarol
3 Feb 2028
Donnerstag
Verarbeitung

Persönlichkeit

Anpassungsfähigkeit (12) Ehrgeiz (8) Kontroverse (17) Loyalität (8) Druck (16) Professionalität (1) Fairness (5) Temperament (1)

Profil

Trainerstil Demokratisch
Lizenz Kontinentale B
Entschlossenheit 9
Menschenführung 10
Motivation 7
Disziplin 10
Arbeitszufriedenheit
100%
Ermüdung
0%
Rolle Chefscout
Gehalt 79.9K p/W
Vertrag 14.03.2030

Leistung

Verhalten Gut
Trainingseffektivität
49%
Spielerentwicklung
45%
Verletzungsprävention
65%
Taktische Umsetzung
50%

Letzte Ereignisse

Nahm an einer Scouting-Besprechung teil jetzt
Empfahl ein Transferziel jetzt
Empfahl ein Transferziel jetzt
Empfahl ein Transferziel jetzt
Empfahl ein Transferziel jetzt
Nahm an einer Scouting-Besprechung teil jetzt
Nahm an einer Scouting-Besprechung teil 7T her
Nahm an einer Scouting-Besprechung teil 7T her

Aktuell beobachtet

225
Spieler Verein Status Fähigkeit Vertrauen Beobachtet Zuletzt beobachtet Letzte Stimme
Ignacio Perruzzi San Lorenzo Aktiv 127 / 128 40% 8 05.01.2028 -
Santiago Núñez Estudiantes Aktiv 126 / 131 40% 6 05.01.2028 -
Martín Garay Tigre Aktiv 129 / 124 40% 10 05.01.2028 -
Sasha Marcich Lanús Aktiv 127 / 127 40% 10 04.01.2028 -
Emanuel Coronel Rosario Central Aktiv 133 / 130 40% 5 04.01.2028 -
Nicolás Paz San Martín SJ Aktiv 128 / 123 40% 2 04.01.2028 -
Manuel Guillén Argentinos Juniors Aktiv 120 / 116 40% 3 29.12.2027 -
Gonzalo Pérez Lanús Aktiv 129 / 119 40% 1 29.12.2027 -
Daniel Herrera San Lorenzo Aktiv 122 / 122 40% 1 29.12.2027 -
Ayrton Costa Boca Juniors Aktiv 136 / 129 40% 6 21.12.2027 -
Nicolás Tripichio San Lorenzo Aktiv 123 / 119 40% 9 21.12.2027 -
Gianluca Ferrari Atlético Tucumán Aktiv 127 / 119 40% 1 19.12.2027 -
Roberto Ramírez Godoy Cruz Aktiv 117 / 115 40% 1 13.12.2027 -
Zion Suzuki Burnley Aktiv 148 / 142 40% 1 13.12.2027 -
Claudio Bravo Argentinos Juniors Aktiv 116 / 119 40% 1 09.12.2027 -
Lucas Souto Defensa y Justicia Aktiv 125 / 126 40% 9 07.12.2027 -
Tomás Silva Platense Aktiv 133 / 131 40% 1 07.12.2027 -
Santiago González Tigre Aktiv 134 / 126 40% 6 06.12.2027 -
Mateo Mendoza Godoy Cruz Aktiv 130 / 127 40% 10 05.12.2027 -
Facundo Miño Deportivo Riestra Aktiv 121 / 119 40% 1 05.12.2027 -
Guillermo Enrique Huracán Aktiv 119 / 127 40% 1 05.12.2027 -
Juan Infante Atlético Tucumán Aktiv 118 / 119 40% 3 02.12.2027 -
Lucas Carrizo Newell's Old Boys Aktiv 135 / 120 40% 5 02.12.2027 -
Braian Galván Oriental Aktiv 110 / 112 69% 1 02.12.2027 Befürworten
Gonzalo Montiel River Plate Aktiv 130 / 127 40% 4 01.12.2027 -
Mao Hosoya Everton Verhandlung 134 / 135 67% 1 01.12.2027 Befürworten
Felipe Peña Biafore Lanús Aktiv 133 / 134 40% 7 27.11.2027 -
Kevin Paredes River Plate Aktiv 135 / 137 40% 2 26.11.2027 -
Leandro Lozano Boca Juniors Aktiv 132 / 131 40% 3 21.11.2027 -
Gonzalo Abrego Godoy Cruz Aktiv 131 / 124 40% 4 21.11.2027 -
Franco Ibarra Rosario Central Aktiv 136 / 134 40% 6 21.11.2027 -
Emanuel Mammana Vélez Aktiv 137 / 132 40% 10 18.11.2027 -
Damián Fernández Defensa y Justicia Aktiv 127 / 132 40% 6 17.11.2027 -
César Ibáñez Huracán Aktiv 124 / 121 40% 5 12.11.2027 -
Vicente Poggi Godoy Cruz Aktiv 131 / 121 40% 7 11.11.2027 -
Rodrigo Herrera Newell's Old Boys Aktiv 121 / 122 40% 1 11.11.2027 -
Sheyko Studer Independiente Rivadavia Aktiv 121 / 127 40% 2 07.11.2027 -
Oscar Salomón Newell's Old Boys Aktiv 126 / 123 40% 1 30.10.2027 -
Sebastián Valdez Independiente Aktiv 129 / 121 40% 3 25.10.2027 -
Ignacio Rodríguez Racing Club Aktiv 129 / 129 40% 4 17.10.2027 -
César Pérez Defensa y Justicia Aktiv 133 / 126 40% 2 14.10.2027 -
Bryan Ramírez FC Cincinnati Aktiv 132 / 131 40% 3 03.10.2027 -
Emiliano Álvarez Progreso Aktiv 122 / 125 40% 3 28.09.2027 -
Kevin López Independiente Aktiv 133 / 127 40% 1 21.09.2027 -
Mauro Arambarri River Plate Aktiv 159 / 154 40% 2 18.09.2027 Mehr Infos nötig
Augusto Schott Talleres Aktiv 117 / 125 40% 2 14.09.2027 -
Adrián Sánchez Belgrano Aktiv 123 / 130 40% 1 06.09.2027 -
Lukas Engel Real Salt Lake Aktiv 132 / 124 40% 1 06.09.2027 -
Nazareno Colombo Racing Club Aktiv 119 / 127 40% 1 29.08.2027 -
Gabriel Neves Estudiantes Aktiv 118 / 122 40% 2 28.08.2027 -
Matías Pérez Racing Club Aktiv 119 / 120 40% 3 27.08.2027 -
Francisco Álvarez Argentinos Juniors Aktiv 119 / 121 40% 2 27.08.2027 -
Juan Carlos Portillo River Plate Aktiv 134 / 133 40% 1 21.08.2027 -
Matteo Lovato Padova Aktiv 135 / 140 40% 1 20.08.2027 -
Alessandro Buongiorno Sassuolo Aktiv 161 / 162 40% 1 20.08.2027 -
Massimiliano Mangraviti Cesena Aktiv 129 / 126 40% 2 19.08.2027 -
Nuno Tavares Lazio Aktiv 147 / 158 40% 1 18.08.2027 -
Fabio Gerli Modena Aktiv 119 / 135 40% 1 18.08.2027 -
Samuele Angori Pisa Aktiv 131 / 141 40% 1 15.08.2027 -
Oleksandr Zinchenko Napoli Aktiv 159 / 161 40% 1 15.08.2027 -
Mateu Morey Girona Aktiv 127 / 145 40% 1 14.08.2027 -
Nicolò Rovella Lazio Aktiv 161 / 147 40% 2 12.08.2027 -
Tommaso Pobega Bologna Aktiv 143 / 145 40% 1 12.08.2027 -
Lewis Ferguson Bologna Aktiv 154 / 141 40% 1 12.08.2027 -
Nadir Zortea Bologna Aktiv 146 / 147 40% 1 10.08.2027 -
Yehor Yarmoliuk Brentford Aktiv 148 / 145 40% 3 09.08.2027 -
Adrien Truffert Bournemouth Aktiv 162 / 160 40% 3 09.08.2027 -
Tyler Adams Bournemouth Aktiv 156 / 166 40% 4 09.08.2027 -
Callum Doyle Wrexham Aktiv 139 / 134 40% 3 08.08.2027 -
Welington Southampton Aktiv 142 / 126 40% 6 08.08.2027 -
Jake O'Brien Everton Aktiv 160 / 149 40% 2 08.08.2027 -
Mats Wieffer Brighton Aktiv 153 / 151 40% 4 06.08.2027 -
Max Bird Birmingham Aktiv 142 / 129 40% 4 06.08.2027 -
Ethan Galbraith Swansea City Aktiv 129 / 127 40% 6 05.08.2027 -
Derry Murkin Derby County Aktiv 136 / 128 40% 3 03.08.2027 -
Hamza Choudhury Leicester City Aktiv 118 / 134 40% 1 03.08.2027 -
Azor Matusiwa Ipswich Town Aktiv 142 / 142 40% 1 03.08.2027 -
Jacques Ekomié Wrexham Aktiv 147 / 129 40% 3 02.08.2027 -
Milan van Ewijk Mansfield Town Aktiv 128 / 138 40% 2 02.08.2027 -
Jack Currie Oxford United Aktiv 138 / 130 40% 1 01.08.2027 -
Jacob Greaves Ipswich Town Aktiv 128 / 131 40% 3 30.07.2027 -
Julio Alonso Huesca Aktiv 114 / 124 40% 1 28.07.2027 -
Harry Clarke Preston Aktiv 124 / 128 40% 3 22.07.2027 -
Soungoutou Magassa West Ham United Aktiv 138 / 135 40% 3 22.07.2027 -
Chris Mepham West Bromwich Albion Aktiv 118 / 129 40% 1 21.07.2027 -
Juanlu Bournemouth Aktiv 160 / 153 40% 2 20.07.2027 -
Callum Brittain Middlesbrough Aktiv 143 / 131 40% 5 20.07.2027 -
Nordi Mukiele Sunderland Aktiv 162 / 156 40% 4 17.07.2027 -
Adam Wharton Crystal Palace Aktiv 161 / 154 40% 3 15.07.2027 -
Teden Mengi Luton Town Aktiv 120 / 125 40% 1 14.07.2027 -
Shea Charles Southampton Aktiv 126 / 147 40% 1 30.06.2027 -
Ross McCrorie Bristol City Aktiv 143 / 130 40% 2 29.06.2027 -
Toby Collyer West Bromwich Albion Aktiv 143 / 136 40% 2 28.06.2027 -
Amadou Onana Aston Villa Aktiv 144 / 161 40% 1 26.06.2027 -
Saša Lukić Ipswich Town Aktiv 130 / 144 40% 2 24.06.2027 -
Alfie Doughty Millwall Aktiv 127 / 126 40% 2 23.06.2027 -
Alejandro Balde Barcelona Aktiv 150 / 164 40% 1 21.06.2027 -
Atsuki Ito Bolton Wanderers Aktiv 122 / 119 40% 1 19.06.2027 -
Nicolas Madsen Queens Park Rangers Aktiv 145 / 125 40% 1 18.06.2027 -
Juan Mosquera Sheffield Wednesday Aktiv 122 / 130 40% 1 12.06.2027 -
Rob Atkinson Bristol City Aktiv 140 / 135 40% 2 11.06.2027 -
Kristoffer Lund Birmingham Aktiv 140 / 122 40% 1 09.06.2027 -
Luke McNally Bristol City Aktiv 130 / 134 40% 1 09.06.2027 -
Kyle Walker-Peters West Ham United Aktiv 124 / 130 40% 1 04.06.2027 -
Facundo Torres LOSC Lille Aktiv 134 / 134 67% 1 01.06.2027 Befürworten
Luciano Inverso Rentistas Aktiv 103 / 120 58% 1 01.06.2027 Befürworten
Che Adams Torino Aktiv 155 / 143 40% 9 30.05.2027 -
Taty Castellanos West Ham United Aktiv 135 / 142 40% 9 30.05.2027 -
Edoardo Motta Lazio Aktiv 131 / 126 40% 5 29.05.2027 -
Denis Adamov Zenit Aktiv 115 / 130 40% 3 29.05.2027 -
Daniel Iversen Preston Aktiv 139 / 133 40% 3 28.05.2027 -
Michael Zetterer Leeds United Aktiv 153 / 133 40% 2 28.05.2027 -
Max O'Leary West Bromwich Albion Aktiv 137 / 134 40% 1 26.05.2027 -
Morgan Whittaker Middlesbrough Aktiv 137 / 140 40% 3 25.05.2027 -
Nicolas Jackson Aston Villa Aktiv 141 / 150 40% 3 25.05.2027 -
Assane Diao Lazio Aktiv 147 / 153 40% 5 22.05.2027 -
Gonzalo Fulham Aktiv 144 / 144 40% 4 22.05.2027 -
Nicolas Schmid Portsmouth Aktiv 117 / 127 40% 1 22.05.2027 -
Ezequiel Centurión River Plate Aktiv 127 / 123 40% 1 22.05.2027 -
Nicolò Zaniolo Udinese Aktiv 138 / 147 40% 2 21.05.2027 -
Nikola Vlašić Torino Aktiv 159 / 140 40% 1 21.05.2027 -
Dean Henderson Crystal Palace Aktiv 158 / 143 40% 5 20.05.2027 -
Maduka Okoye Udinese Aktiv 147 / 144 40% 6 17.05.2027 -
Andrea Pinamonti Lazio Aktiv 140 / 139 40% 7 17.05.2027 -
Vanja Milinković-Savić Torino Aktiv 151 / 143 40% 2 17.05.2027 -
Tammy Abraham Aston Villa Aktiv 148 / 134 40% 2 15.05.2027 Mehr Infos nötig
James Trafford Leeds United Aktiv 153 / 148 40% 1 14.05.2027 -
Dávid Strelec Middlesbrough Aktiv 145 / 131 40% 2 10.05.2027 -
Alex Meret Napoli Aktiv 151 / 164 40% 3 08.05.2027 -
Mateo Pellegrino Fiorentina Aktiv 125 / 136 40% 4 03.05.2027 -
Radek Vítek Middlesbrough Aktiv 146 / 133 40% 1 03.05.2027 -
Dango Ouattara Brentford Aktiv 141 / 139 40% 3 29.04.2027 -
Michele Cerofolini Bari Aktiv 116 / 124 40% 1 29.04.2027 -
Oli McBurnie Hull City Aktiv 122 / 125 40% 5 26.04.2027 -
Mads Hermansen West Ham United Aktiv 155 / 142 40% 1 25.04.2027 -
Wilson Isidor Sunderland Aktiv 150 / 141 40% 3 18.04.2027 -
Georginio Rutter Brighton Aktiv 161 / 146 40% 4 18.04.2027 -
Jens Odgaard Bologna Aktiv 136 / 146 40% 1 16.04.2027 -
João Virgínia Wolverhampton Aktiv 137 / 133 40% 1 16.04.2027 -
Giacomo Raspadori Atalanta Aktiv 136 / 153 40% 5 11.04.2027 -
Pablo Felipe West Ham United Aktiv 131 / 138 40% 1 08.04.2027 -
Santiago Silva CFR Cluj Aktiv 129 / 128 40% 1 07.04.2027 -
Yoane Wissa Newcastle United Aktiv 157 / 145 40% 1 05.04.2027 -
Jarrod Bowen West Ham United Aktiv 147 / 144 40% 2 04.04.2027 -
Keinan Davis Udinese Aktiv 124 / 125 40% 2 26.03.2027 -
Wladimiro Falcone Lecce Aktiv 142 / 148 40% 2 25.03.2027 -
Zakaria Aboukhlal Torino Aktiv 143 / 138 40% 1 22.03.2027 -
Jonathan Klinsmann Cesena Aktiv 140 / 122 40% 1 21.03.2027 -
Tomás Marchiori Vélez Aktiv 126 / 133 40% 4 20.03.2027 -
Ilyas Ansah Hull City Aktiv 122 / 125 40% 1 16.03.2027 -
Omri Glazer Maccabi Haifa Aktiv 124 / 128 40% 1 16.03.2027 -
Zeki Amdouni Burnley Aktiv 121 / 141 40% 2 14.03.2027 -
Thiago Brentford Aktiv 144 / 139 40% 3 07.03.2027 -
Grégoire Coudert Burnley Aktiv 139 / 121 40% 3 04.03.2027 -
Hany Mukhtar Spezia Aktiv 123 / 131 40% 9 28.02.2027 -
Robin Roefs Sunderland Aktiv 152 / 146 40% 1 24.02.2027 -
Youssef En-Nesyri Al-Ittihad Aktiv 127 / 132 40% 2 15.02.2027 -
Ivan Toney Al-Ahli Aktiv 156 / 160 40% 8 13.02.2027 -
Facundo Cambeses Racing Club Aktiv 119 / 127 40% 1 09.02.2027 -
Ángel Correa River Plate Aktiv 138 / 143 40% 6 07.02.2027 -
Ruben van Bommel Ferencvaros Aktiv 142 / 137 40% 3 04.02.2027 -
Dominik Takáč Slovan Bratislava Aktiv 114 / 119 40% 1 01.02.2027 -
Manfred Ugalde Spartak Moscow Aktiv 123 / 121 40% 1 24.01.2027 -
Breel Embolo Atlanta United FC Aktiv 135 / 137 40% 7 23.01.2027 -
Martín Ojeda Orlando City Aktiv 133 / 135 40% 5 18.01.2027 -
Bertrand Traoré Sunderland Aktiv 125 / 135 40% 2 16.01.2027 -
Egil Selvik Watford Aktiv 111 / 120 40% 1 28.12.2026 -
Michael Cooper Sheffield United Aktiv 142 / 137 40% 1 28.12.2026 -
Stefanos Tzimas Brighton Aktiv 134 / 132 40% 3 24.12.2026 -
Felipe Augusto Zenit Aktiv 147 / 124 40% 2 23.12.2026 -
Hwang Hee-Chan Wolverhampton Aktiv 118 / 131 40% 1 08.12.2026 -
Eddie Nketiah Crystal Palace Aktiv 125 / 131 40% 1 07.12.2026 -
Erick Sánchez OGC Nice Verloren 139 / 139 66% 1 01.12.2026 Befürworten
Christian Tabó Deportivo Maldonado Aktiv 108 / 112 58% 1 01.12.2026 -
Ľubomír Belko Viking Aktiv 125 / 126 40% 2 29.11.2026 -
Tijjani Noslin Lazio Aktiv 120 / 127 40% 1 28.11.2026 -
Pascal Loretz Luzern Aktiv 113 / 136 40% 1 24.11.2026 -
Moussa Dembélé CR Belouizdad Aktiv 117 / 132 40% 1 18.11.2026 -
Nikola Vasilj Al-Diriyah Verloren 151 / 144 40% 2 17.11.2026 -
Matt Freese New York City Aktiv 124 / 132 40% 3 14.11.2026 -
Martin Jedlička Banik Ostrava Verloren 135 / 132 40% 2 14.11.2026 -
Reda Khadra Qarabag Aktiv 128 / 120 40% 1 12.11.2026 -
Alexey Miranchuk St. Gallen Aktiv 156 / 132 40% 6 09.11.2026 -
Marcelino Moreno Lanús Aktiv 125 / 127 40% 1 09.11.2026 -
Leo Ceara Kashima Antlers Aktiv 122 / 133 40% 8 05.11.2026 -
Zack Steffen Spartak Moscow Aktiv 132 / 120 40% 3 05.11.2026 -
Rashid Rashid Sparta Prague Aktiv 121 / 131 40% 3 05.11.2026 Beobachten
Bento Al-Nassr Aktiv 117 / 134 40% 1 05.11.2026 -
Ryan Gauld Vancouver Whitecaps Aktiv 146 / 129 40% 1 29.10.2026 -
Ryosuke Kojima Kashiwa Reysol Aktiv 113 / 133 40% 3 28.10.2026 -
Manuel Roffo Cerro Porteno Aktiv 122 / 131 40% 1 28.10.2026 -
Alexander Nübel Besiktas Aktiv 134 / 154 40% 2 25.10.2026 -
Karim Konaté Red Bull Salzburg Aktiv 128 / 136 40% 4 12.10.2026 -
Takuma Asano Sanfrecce Hiroshima Aktiv 151 / 136 40% 3 11.10.2026 -
Mojmír Chytil NK Maribor Aktiv 123 / 126 40% 1 08.10.2026 -
Miles Robinson FC Cincinnati Aktiv 134 / 128 40% 1 08.10.2026 -
Josh Brownhill Al-Shabab Aktiv 115 / 132 40% 1 08.10.2026 -
Tomoki Hayakawa Kashima Antlers Aktiv 143 / 139 40% 2 02.10.2026 -
Adnan Courtois KV Oostende Aktiv 127 / 144 40% 1 02.10.2026 -
Nikita Haikin Standard Liege Aktiv 145 / 134 40% 1 29.09.2026 -
Eduard Spertsyan Al-Ahli Aktiv 158 / 147 40% 1 28.09.2026 -
Barış Alper Yılmaz Galatasaray Aktiv 140 / 151 40% 2 27.09.2026 -
Predrag Rajković Racing Genk Aktiv 151 / 145 40% 2 25.09.2026 -
Sergio Reguilón Inter Miami CF Aktiv 140 / 138 40% 1 23.09.2026 -
Pedrinho Shakhtar Aktiv 146 / 140 40% 1 23.09.2026 -
Musa Barrow Al-Khaleej Aktiv 122 / 145 40% 2 21.09.2026 -
Luka Jović AEK Aktiv 124 / 135 40% 2 19.09.2026 -
Mateusz Kochalski Dynamo Kyiv Aktiv 138 / 136 40% 2 18.09.2026 -
Carlos Moreno Pachuca Aktiv 129 / 129 40% 1 18.09.2026 -
Diego Rossi Monterrey Aktiv 135 / 129 40% 1 16.09.2026 -
Bruno Varela Najran Aktiv 116 / 115 40% 1 14.09.2026 -
Kevin Álvarez Club America Aktiv 123 / 132 40% 1 12.09.2026 -
Allan Saint-Maximin Charlotte Football Club Aktiv 151 / 141 40% 1 08.09.2026 -
Petar Musa Adana Demirspor Aktiv 127 / 143 40% 1 05.09.2026 -
Romelu Castagne KV Oostende Aktiv 138 / 135 40% 1 04.09.2026 -
Alejandro Zendejas Club America Aktiv 150 / 140 40% 2 02.09.2026 -
Cristian Espinoza Nashville SC Aktiv 130 / 136 40% 1 02.09.2026 -
Soufiane Rahimi Guadalajara Aktiv 136 / 137 40% 1 29.08.2026 -
Marco Asensio Fenerbahce Aktiv 165 / 145 40% 1 27.08.2026 -
Leroy Sané Galatasaray Aktiv 160 / 149 40% 1 27.08.2026 -
Jonathan Bamba Chicago Fire Aktiv 144 / 136 40% 1 24.08.2026 -
Rubén Blanco Yokohama F. Marinos Aktiv 140 / 132 40% 1 23.08.2026 -
Fernando Tapia Club America Aktiv 118 / 127 40% 1 22.08.2026 -
Kerem Aktürkoğlu Fenerbahce Aktiv 127 / 144 40% 1 13.08.2026 -
Patrick Pentz Brondby Aktiv 121 / 119 40% 1 11.08.2026 -